LOT3JM EDDL-EPWA
Flight info
| Callsign | LOT3JM |
|---|---|
| Flight time | 1h 27m |
| Altitude | 37000 |
| Route | MEVEL1Z/05R MEVEL L179 MISRI Z851 ROBEG DCT ALUKA DCT TUPUR L29 TADAK DCT NASOK DCT SORIX |
| Aircraft | B738/M-SDE2E3FGHIRWXY/LB1 |
Departure
| Time | 2026-05-06 09:20 |
|---|---|
| Airport | Düsseldorf Airport (EDDL) |
Arrival
| Time | 2026-05-06 10:48 |
|---|---|
| Airport | Warsaw Chopin Airport (EPWA) |
| Time | Latitude | Longitude | Altitude | Speed | Heading |
|---|---|---|---|---|---|
| 2026-05-06 08:55 | 51.28106 | 6.76719 | 153 ft | 0 kts | 276° |
| 2026-05-06 09:10 | 51.28105 | 6.76737 | 153 ft | 2 kts | 274° |
| 2026-05-06 09:10 | 51.28102 | 6.76760 | 153 ft | 2 kts | 298° |
| 2026-05-06 09:11 | 51.28093 | 6.76779 | 153 ft | 2 kts | 320° |
| 2026-05-06 09:11 | 51.28082 | 6.76789 | 153 ft | 2 kts | 341° |
| 2026-05-06 09:11 | 51.28067 | 6.76793 | 153 ft | 2 kts | 6° |
| 2026-05-06 09:11 | 51.28059 | 6.76790 | 153 ft | 1 kts | 21° |
| 2026-05-06 09:12 | 51.28055 | 6.76788 | 153 ft | 0 kts | 18° |
| 2026-05-06 09:14 | 51.28070 | 6.76796 | 153 ft | 7 kts | 18° |
| 2026-05-06 09:14 | 51.28131 | 6.76825 | 153 ft | 8 kts | 17° |
| 2026-05-06 09:14 | 51.28188 | 6.76840 | 153 ft | 7 kts | 6° |
| 2026-05-06 09:15 | 51.28240 | 6.76850 | 153 ft | 7 kts | 7° |
| 2026-05-06 09:15 | 51.28286 | 6.76859 | 153 ft | 6 kts | 7° |
| 2026-05-06 09:15 | 51.28329 | 6.76867 | 153 ft | 6 kts | 6° |
| 2026-05-06 09:15 | 51.28373 | 6.76861 | 153 ft | 6 kts | 338° |
| 2026-05-06 09:16 | 51.28406 | 6.76826 | 153 ft | 5 kts | 323° |
| 2026-05-06 09:16 | 51.28433 | 6.76794 | 153 ft | 4 kts | 323° |
| 2026-05-06 09:16 | 51.28457 | 6.76755 | 153 ft | 7 kts | 295° |
| 2026-05-06 09:16 | 51.28429 | 6.76649 | 153 ft | 11 kts | 233° |
| 2026-05-06 09:17 | 51.28381 | 6.76548 | 153 ft | 13 kts | 233° |
| 2026-05-06 09:17 | 51.28311 | 6.76400 | 153 ft | 18 kts | 234° |
| 2026-05-06 09:17 | 51.28235 | 6.76243 | 153 ft | 17 kts | 233° |
| 2026-05-06 09:17 | 51.28164 | 6.76092 | 153 ft | 16 kts | 233° |
| 2026-05-06 09:18 | 51.28095 | 6.75943 | 153 ft | 16 kts | 234° |
| 2026-05-06 09:18 | 51.28027 | 6.75806 | 153 ft | 15 kts | 232° |
| 2026-05-06 09:18 | 51.27964 | 6.75673 | 153 ft | 14 kts | 233° |
| 2026-05-06 09:18 | 51.27904 | 6.75546 | 153 ft | 13 kts | 232° |
| 2026-05-06 09:19 | 51.27848 | 6.75427 | 153 ft | 13 kts | 242° |
| 2026-05-06 09:19 | 51.27879 | 6.75319 | 153 ft | 11 kts | 332° |
| 2026-05-06 09:19 | 51.27952 | 6.75268 | 154 ft | 11 kts | 350° |
| 2026-05-06 09:19 | 51.28014 | 6.75313 | 154 ft | 10 kts | 50° |
| 2026-05-06 09:20 | 51.28069 | 6.75424 | 153 ft | 30 kts | 53° |
| 2026-05-06 09:20 | 51.28373 | 6.76058 | 154 ft | 109 kts | 53° |
| 2026-05-06 09:20 | 51.28959 | 6.77294 | 218 ft | 165 kts | 52° |
| 2026-05-06 09:20 | 51.29608 | 6.78718 | 1023 ft | 165 kts | 50° |
| 2026-05-06 09:21 | 51.30331 | 6.80205 | 1770 ft | 174 kts | 49° |
| 2026-05-06 09:21 | 51.31074 | 6.81764 | 2330 ft | 184 kts | 50° |
| 2026-05-06 09:21 | 51.31863 | 6.83426 | 2835 ft | 197 kts | 50° |
| 2026-05-06 09:21 | 51.32725 | 6.85243 | 3308 ft | 214 kts | 51° |
| 2026-05-06 09:22 | 51.33650 | 6.87247 | 3765 ft | 233 kts | 53° |
| 2026-05-06 09:22 | 51.34675 | 6.89309 | 4442 ft | 242 kts | 43° |
| 2026-05-06 09:22 | 51.36128 | 6.90748 | 4931 ft | 258 kts | 16° |
| 2026-05-06 09:22 | 51.37914 | 6.91277 | 5576 ft | 268 kts | 8° |
| 2026-05-06 09:23 | 51.39784 | 6.91715 | 6284 ft | 277 kts | 9° |
| 2026-05-06 09:23 | 51.41704 | 6.92215 | 7027 ft | 282 kts | 9° |
| 2026-05-06 09:23 | 51.43611 | 6.92720 | 7874 ft | 282 kts | 8° |
| 2026-05-06 09:23 | 51.45541 | 6.93241 | 8799 ft | 281 kts | 9° |
| 2026-05-06 09:24 | 51.47434 | 6.93774 | 9674 ft | 280 kts | 8° |
| 2026-05-06 09:24 | 51.49080 | 6.94168 | 10276 ft | 284 kts | 5° |
| 2026-05-06 09:24 | 51.51103 | 6.94059 | 10811 ft | 296 kts | 352° |
| 2026-05-06 09:24 | 51.53163 | 6.93343 | 11295 ft | 309 kts | 349° |
| 2026-05-06 09:25 | 51.55316 | 6.92726 | 11668 ft | 325 kts | 352° |
| 2026-05-06 09:25 | 51.57612 | 6.92156 | 11958 ft | 344 kts | 352° |
| 2026-05-06 09:25 | 51.59999 | 6.91517 | 12278 ft | 361 kts | 351° |
| 2026-05-06 09:25 | 51.62524 | 6.90798 | 12746 ft | 373 kts | 352° |
| 2026-05-06 09:26 | 51.65115 | 6.90233 | 13430 ft | 377 kts | 358° |
| 2026-05-06 09:26 | 51.67724 | 6.90409 | 14183 ft | 378 kts | 12° |
| 2026-05-06 09:26 | 51.70157 | 6.91756 | 14926 ft | 378 kts | 28° |
| 2026-05-06 09:26 | 51.72460 | 6.93917 | 15603 ft | 384 kts | 34° |
| 2026-05-06 09:27 | 51.74556 | 6.96547 | 16198 ft | 389 kts | 46° |
| 2026-05-06 09:27 | 51.76249 | 6.99946 | 16888 ft | 392 kts | 56° |
| 2026-05-06 09:27 | 51.77789 | 7.03590 | 17638 ft | 394 kts | 56° |
| 2026-05-06 09:27 | 51.79336 | 7.07200 | 18261 ft | 399 kts | 55° |
| 2026-05-06 09:28 | 51.80957 | 7.10864 | 18927 ft | 403 kts | 54° |
| 2026-05-06 09:28 | 51.82608 | 7.14546 | 19623 ft | 405 kts | 55° |
| 2026-05-06 09:28 | 51.84125 | 7.18396 | 20307 ft | 408 kts | 60° |
| 2026-05-06 09:28 | 51.85462 | 7.22393 | 20898 ft | 412 kts | 64° |
| 2026-05-06 09:29 | 51.86591 | 7.26634 | 21406 ft | 417 kts | 69° |
| 2026-05-06 09:29 | 51.87582 | 7.31116 | 21951 ft | 422 kts | 71° |
| 2026-05-06 09:29 | 51.88546 | 7.35594 | 22533 ft | 425 kts | 71° |
| 2026-05-06 09:29 | 51.89513 | 7.40087 | 23100 ft | 428 kts | 71° |
| 2026-05-06 09:30 | 51.90491 | 7.44683 | 23629 ft | 432 kts | 71° |
| 2026-05-06 09:30 | 51.91463 | 7.49280 | 24146 ft | 436 kts | 71° |
| 2026-05-06 09:30 | 51.92439 | 7.53924 | 24756 ft | 438 kts | 71° |
| 2026-05-06 09:30 | 51.93406 | 7.58545 | 25343 ft | 440 kts | 71° |
| 2026-05-06 09:31 | 51.94356 | 7.63269 | 25869 ft | 443 kts | 73° |
| 2026-05-06 09:31 | 51.95208 | 7.68065 | 26365 ft | 446 kts | 76° |
| 2026-05-06 09:31 | 51.96012 | 7.72896 | 26830 ft | 450 kts | 76° |
| 2026-05-06 09:31 | 51.96825 | 7.77834 | 27289 ft | 453 kts | 75° |
| 2026-05-06 09:32 | 51.97657 | 7.82700 | 27808 ft | 455 kts | 74° |
| 2026-05-06 09:32 | 51.98513 | 7.87601 | 28372 ft | 456 kts | 75° |
| 2026-05-06 09:32 | 51.99369 | 7.92572 | 28840 ft | 459 kts | 75° |
| 2026-05-06 09:32 | 52.00220 | 7.97548 | 29505 ft | 457 kts | 75° |
| 2026-05-06 09:33 | 52.01054 | 8.02434 | 30285 ft | 452 kts | 75° |
| 2026-05-06 09:33 | 52.01891 | 8.07348 | 30914 ft | 450 kts | 75° |
| 2026-05-06 09:33 | 52.02719 | 8.12220 | 31440 ft | 449 kts | 75° |
| 2026-05-06 09:33 | 52.03540 | 8.17062 | 31820 ft | 450 kts | 75° |
| 2026-05-06 09:34 | 52.04369 | 8.21963 | 32295 ft | 450 kts | 76° |
| 2026-05-06 09:34 | 52.05198 | 8.26872 | 32705 ft | 450 kts | 76° |
| 2026-05-06 09:34 | 52.06014 | 8.31721 | 33107 ft | 451 kts | 76° |
| 2026-05-06 09:34 | 52.06846 | 8.36672 | 33512 ft | 451 kts | 76° |
| 2026-05-06 09:35 | 52.07667 | 8.41572 | 33836 ft | 452 kts | 76° |
| 2026-05-06 09:35 | 52.08486 | 8.46472 | 34149 ft | 452 kts | 76° |
| 2026-05-06 09:35 | 52.09315 | 8.51448 | 34459 ft | 453 kts | 76° |
| 2026-05-06 09:35 | 52.10140 | 8.56411 | 34769 ft | 453 kts | 76° |
| 2026-05-06 09:36 | 52.10959 | 8.61354 | 35001 ft | 455 kts | 76° |
| 2026-05-06 09:36 | 52.11778 | 8.66314 | 35291 ft | 455 kts | 77° |
| 2026-05-06 09:36 | 52.12601 | 8.71306 | 35497 ft | 456 kts | 77° |
| 2026-05-06 09:36 | 52.13415 | 8.76270 | 35720 ft | 457 kts | 77° |
| 2026-05-06 09:37 | 52.14245 | 8.81334 | 35960 ft | 458 kts | 77° |
| 2026-05-06 09:37 | 52.15060 | 8.86327 | 36162 ft | 459 kts | 77° |
| 2026-05-06 09:37 | 52.15879 | 8.91357 | 36394 ft | 460 kts | 77° |
| 2026-05-06 09:37 | 52.16687 | 8.96334 | 36606 ft | 460 kts | 77° |
| 2026-05-06 09:38 | 52.17515 | 9.01446 | 36740 ft | 463 kts | 77° |
| 2026-05-06 09:38 | 52.19146 | 9.11569 | 36774 ft | 464 kts | 77° |
| 2026-05-06 09:39 | 52.20762 | 9.21653 | 36779 ft | 460 kts | 77° |
| 2026-05-06 09:39 | 52.22376 | 9.31793 | 36777 ft | 461 kts | 77° |
| 2026-05-06 09:40 | 52.23976 | 9.41910 | 36768 ft | 463 kts | 77° |
| 2026-05-06 09:40 | 52.26357 | 9.57067 | 36769 ft | 462 kts | 77° |
| 2026-05-06 09:41 | 52.27939 | 9.67220 | 36779 ft | 462 kts | 78° |
| 2026-05-06 09:41 | 52.29503 | 9.77316 | 36787 ft | 462 kts | 78° |
| 2026-05-06 09:42 | 52.31061 | 9.87444 | 36782 ft | 462 kts | 78° |
| 2026-05-06 09:42 | 52.32615 | 9.97611 | 36782 ft | 463 kts | 78° |
| 2026-05-06 09:43 | 52.34165 | 10.07807 | 36780 ft | 463 kts | 78° |
| 2026-05-06 09:43 | 52.35703 | 10.17986 | 36782 ft | 462 kts | 78° |
| 2026-05-06 09:44 | 52.37223 | 10.28120 | 36780 ft | 464 kts | 78° |
| 2026-05-06 09:44 | 52.38744 | 10.38326 | 36773 ft | 464 kts | 78° |
| 2026-05-06 09:45 | 52.40266 | 10.48597 | 36786 ft | 464 kts | 78° |
| 2026-05-06 09:45 | 52.41763 | 10.58773 | 36789 ft | 463 kts | 78° |
| 2026-05-06 09:46 | 52.43262 | 10.69021 | 36791 ft | 463 kts | 79° |
| 2026-05-06 09:46 | 52.44743 | 10.79219 | 36773 ft | 463 kts | 79° |
| 2026-05-06 09:47 | 52.46219 | 10.89452 | 36769 ft | 463 kts | 79° |
| 2026-05-06 09:47 | 52.47691 | 10.99721 | 36771 ft | 463 kts | 79° |
| 2026-05-06 09:48 | 52.49152 | 11.09983 | 36769 ft | 464 kts | 79° |
| 2026-05-06 09:48 | 52.50606 | 11.20270 | 36787 ft | 464 kts | 79° |
| 2026-05-06 09:49 | 52.52043 | 11.30503 | 36774 ft | 462 kts | 79° |
| 2026-05-06 09:49 | 52.53482 | 11.40820 | 36780 ft | 464 kts | 79° |
| 2026-05-06 09:50 | 52.54905 | 11.51092 | 36792 ft | 463 kts | 79° |
| 2026-05-06 09:50 | 52.56313 | 11.61326 | 36787 ft | 462 kts | 79° |
| 2026-05-06 09:51 | 52.57716 | 11.71598 | 36783 ft | 462 kts | 80° |
| 2026-05-06 09:51 | 52.59119 | 11.81935 | 36788 ft | 462 kts | 80° |
| 2026-05-06 09:52 | 52.60501 | 11.92179 | 36797 ft | 461 kts | 80° |
| 2026-05-06 09:52 | 52.61872 | 12.02434 | 36789 ft | 462 kts | 80° |
| 2026-05-06 09:53 | 52.63244 | 12.12771 | 36796 ft | 463 kts | 80° |
| 2026-05-06 09:53 | 52.64605 | 12.23086 | 36794 ft | 462 kts | 80° |
| 2026-05-06 09:54 | 52.65955 | 12.33403 | 36787 ft | 462 kts | 80° |
| 2026-05-06 09:54 | 52.67292 | 12.43684 | 36784 ft | 463 kts | 80° |
| 2026-05-06 09:55 | 52.68628 | 12.54035 | 36778 ft | 463 kts | 80° |
| 2026-05-06 09:55 | 52.69956 | 12.64402 | 36787 ft | 462 kts | 80° |
| 2026-05-06 09:56 | 52.71267 | 12.74703 | 36782 ft | 461 kts | 81° |
| 2026-05-06 09:56 | 52.72567 | 12.85015 | 36789 ft | 463 kts | 81° |
| 2026-05-06 09:57 | 52.73872 | 12.95430 | 36782 ft | 463 kts | 81° |
| 2026-05-06 09:57 | 52.75167 | 13.05844 | 36770 ft | 463 kts | 81° |
| 2026-05-06 09:58 | 52.76451 | 13.16254 | 36768 ft | 464 kts | 81° |
| 2026-05-06 09:58 | 52.77719 | 13.26612 | 36768 ft | 464 kts | 81° |
| 2026-05-06 09:59 | 52.78988 | 13.37052 | 36761 ft | 465 kts | 81° |
| 2026-05-06 09:59 | 52.80243 | 13.47473 | 36484 ft | 464 kts | 81° |
| 2026-05-06 10:00 | 52.80865 | 13.52657 | 36711 ft | 463 kts | 81° |
| 2026-05-06 10:00 | 52.81490 | 13.57903 | 36756 ft | 467 kts | 81° |
| 2026-05-06 10:00 | 52.82747 | 13.68508 | 36762 ft | 471 kts | 82° |
| 2026-05-06 10:01 | 52.83991 | 13.79070 | 36762 ft | 468 kts | 82° |
| 2026-05-06 10:01 | 52.85218 | 13.89582 | 36766 ft | 468 kts | 82° |
| 2026-05-06 10:02 | 52.86441 | 14.00133 | 36772 ft | 469 kts | 82° |
| 2026-05-06 10:02 | 52.87654 | 14.10691 | 36773 ft | 469 kts | 82° |
| 2026-05-06 10:03 | 52.88852 | 14.21217 | 36770 ft | 470 kts | 81° |
| 2026-05-06 10:03 | 52.90055 | 14.31799 | 36769 ft | 470 kts | 81° |
| 2026-05-06 10:04 | 52.91628 | 14.42324 | 36762 ft | 472 kts | 77° |
| 2026-05-06 10:04 | 52.93362 | 14.52832 | 36756 ft | 474 kts | 77° |
| 2026-05-06 10:05 | 52.95055 | 14.63292 | 36751 ft | 472 kts | 77° |
| 2026-05-06 10:05 | 52.96710 | 14.73736 | 36747 ft | 472 kts | 78° |
| 2026-05-06 10:06 | 52.98351 | 14.84222 | 36744 ft | 472 kts | 78° |
| 2026-05-06 10:06 | 52.99983 | 14.94751 | 36746 ft | 471 kts | 78° |
| 2026-05-06 10:07 | 53.01593 | 15.05219 | 36743 ft | 471 kts | 78° |
| 2026-05-06 10:07 | 53.03197 | 15.15726 | 36743 ft | 472 kts | 78° |
| 2026-05-06 10:08 | 53.04796 | 15.26280 | 36753 ft | 473 kts | 78° |
| 2026-05-06 10:08 | 53.06385 | 15.36832 | 36762 ft | 473 kts | 78° |
| 2026-05-06 10:09 | 53.07970 | 15.47427 | 36747 ft | 474 kts | 78° |
| 2026-05-06 10:09 | 53.09545 | 15.58032 | 36747 ft | 473 kts | 78° |
| 2026-05-06 10:10 | 53.11107 | 15.68615 | 36750 ft | 473 kts | 79° |
| 2026-05-06 10:10 | 53.12658 | 15.79204 | 36757 ft | 473 kts | 79° |
| 2026-05-06 10:11 | 53.14206 | 15.89835 | 36757 ft | 473 kts | 79° |
| 2026-05-06 10:11 | 53.15737 | 16.00428 | 36751 ft | 475 kts | 79° |
| 2026-05-06 10:12 | 53.17266 | 16.11083 | 36759 ft | 475 kts | 79° |
| 2026-05-06 10:12 | 53.18786 | 16.21740 | 36752 ft | 473 kts | 79° |
| 2026-05-06 10:13 | 53.20299 | 16.32427 | 36758 ft | 475 kts | 79° |
| 2026-05-06 10:13 | 53.21794 | 16.43052 | 36733 ft | 473 kts | 79° |
| 2026-05-06 10:14 | 53.23282 | 16.53704 | 36753 ft | 474 kts | 79° |
| 2026-05-06 10:14 | 53.24765 | 16.64408 | 36748 ft | 474 kts | 79° |
| 2026-05-06 10:15 | 53.26237 | 16.75099 | 36731 ft | 473 kts | 80° |
| 2026-05-06 10:15 | 53.27518 | 16.85851 | 36721 ft | 471 kts | 86° |
| 2026-05-06 10:16 | 53.27660 | 16.96617 | 36726 ft | 465 kts | 99° |
| 2026-05-06 10:16 | 53.26855 | 17.07351 | 36720 ft | 463 kts | 102° |
| 2026-05-06 10:17 | 53.25956 | 17.17943 | 36733 ft | 464 kts | 102° |
| 2026-05-06 10:17 | 53.25050 | 17.28561 | 36734 ft | 463 kts | 102° |
| 2026-05-06 10:18 | 53.24144 | 17.39144 | 36744 ft | 463 kts | 102° |
| 2026-05-06 10:18 | 53.23228 | 17.49768 | 36741 ft | 463 kts | 102° |
| 2026-05-06 10:19 | 53.22300 | 17.60419 | 36741 ft | 464 kts | 102° |
| 2026-05-06 10:19 | 53.21360 | 17.71098 | 36738 ft | 462 kts | 103° |
| 2026-05-06 10:20 | 53.20422 | 17.81682 | 36740 ft | 464 kts | 103° |
| 2026-05-06 10:20 | 53.19476 | 17.92243 | 36738 ft | 462 kts | 103° |
| 2026-05-06 10:21 | 53.18521 | 18.02784 | 36741 ft | 462 kts | 103° |
| 2026-05-06 10:21 | 53.17542 | 18.13454 | 36730 ft | 465 kts | 103° |
| 2026-05-06 10:22 | 53.16559 | 18.24075 | 36729 ft | 465 kts | 103° |
| 2026-05-06 10:22 | 53.15569 | 18.34679 | 36724 ft | 466 kts | 103° |
| 2026-05-06 10:23 | 53.14572 | 18.45248 | 36729 ft | 465 kts | 103° |
| 2026-05-06 10:23 | 53.13560 | 18.55900 | 36646 ft | 463 kts | 103° |
| 2026-05-06 10:24 | 53.13057 | 18.61145 | 36257 ft | 460 kts | 103° |
| 2026-05-06 10:24 | 53.12556 | 18.66374 | 36079 ft | 449 kts | 104° |
| 2026-05-06 10:24 | 53.12076 | 18.71383 | 35961 ft | 437 kts | 104° |
| 2026-05-06 10:24 | 53.11598 | 18.76347 | 35735 ft | 429 kts | 105° |
| 2026-05-06 10:25 | 53.11126 | 18.81183 | 35403 ft | 423 kts | 105° |
| 2026-05-06 10:25 | 53.10656 | 18.85958 | 34977 ft | 421 kts | 105° |
| 2026-05-06 10:25 | 53.10183 | 18.90731 | 34507 ft | 419 kts | 106° |
| 2026-05-06 10:25 | 53.09589 | 18.95428 | 33879 ft | 416 kts | 111° |
| 2026-05-06 10:26 | 53.08666 | 18.99976 | 33222 ft | 410 kts | 120° |
| 2026-05-06 10:26 | 53.07346 | 19.04049 | 32585 ft | 403 kts | 129° |
| 2026-05-06 10:26 | 53.05705 | 19.07856 | 31940 ft | 401 kts | 134° |
| 2026-05-06 10:26 | 53.03998 | 19.11452 | 31305 ft | 401 kts | 134° |
| 2026-05-06 10:27 | 53.02258 | 19.15053 | 30674 ft | 401 kts | 134° |
| 2026-05-06 10:27 | 53.00518 | 19.18643 | 29991 ft | 401 kts | 134° |
| 2026-05-06 10:27 | 52.98775 | 19.22240 | 29302 ft | 402 kts | 134° |
| 2026-05-06 10:27 | 52.97045 | 19.25811 | 28622 ft | 402 kts | 134° |
| 2026-05-06 10:28 | 52.95300 | 19.29406 | 27937 ft | 402 kts | 134° |
| 2026-05-06 10:28 | 52.93561 | 19.32988 | 27255 ft | 401 kts | 134° |
| 2026-05-06 10:28 | 52.91828 | 19.36551 | 26587 ft | 401 kts | 134° |
| 2026-05-06 10:28 | 52.90086 | 19.40129 | 25910 ft | 401 kts | 134° |
| 2026-05-06 10:29 | 52.88339 | 19.43710 | 25235 ft | 400 kts | 134° |
| 2026-05-06 10:29 | 52.86594 | 19.47285 | 24557 ft | 400 kts | 134° |
| 2026-05-06 10:29 | 52.84842 | 19.50867 | 23872 ft | 400 kts | 134° |
| 2026-05-06 10:29 | 52.83111 | 19.54402 | 23190 ft | 399 kts | 133° |
| 2026-05-06 10:30 | 52.81370 | 19.57951 | 22523 ft | 398 kts | 133° |
| 2026-05-06 10:30 | 52.79634 | 19.61488 | 21864 ft | 397 kts | 133° |
| 2026-05-06 10:30 | 52.77906 | 19.65001 | 21212 ft | 396 kts | 133° |
| 2026-05-06 10:30 | 52.76171 | 19.68526 | 20557 ft | 395 kts | 134° |
| 2026-05-06 10:31 | 52.74456 | 19.72005 | 19908 ft | 393 kts | 134° |
| 2026-05-06 10:31 | 52.72746 | 19.75467 | 19268 ft | 391 kts | 134° |
| 2026-05-06 10:31 | 52.71050 | 19.78904 | 18624 ft | 389 kts | 134° |
| 2026-05-06 10:31 | 52.69427 | 19.82523 | 17970 ft | 390 kts | 128° |
| 2026-05-06 10:32 | 52.68013 | 19.86276 | 17350 ft | 389 kts | 125° |
| 2026-05-06 10:32 | 52.66666 | 19.90124 | 16723 ft | 387 kts | 124° |
| 2026-05-06 10:32 | 52.65356 | 19.93927 | 16098 ft | 385 kts | 124° |
| 2026-05-06 10:32 | 52.64035 | 19.97755 | 15467 ft | 382 kts | 123° |
| 2026-05-06 10:33 | 52.62735 | 20.01503 | 14843 ft | 380 kts | 124° |
| 2026-05-06 10:33 | 52.61428 | 20.05259 | 14228 ft | 377 kts | 123° |
| 2026-05-06 10:33 | 52.60135 | 20.08965 | 13774 ft | 370 kts | 124° |
| 2026-05-06 10:33 | 52.58877 | 20.12570 | 13510 ft | 357 kts | 123° |
| 2026-05-06 10:34 | 52.57662 | 20.16048 | 13261 ft | 347 kts | 124° |
| 2026-05-06 10:34 | 52.56488 | 20.19394 | 12976 ft | 338 kts | 124° |
| 2026-05-06 10:34 | 52.55321 | 20.22711 | 12584 ft | 333 kts | 124° |
| 2026-05-06 10:34 | 52.54162 | 20.25998 | 12078 ft | 330 kts | 124° |
| 2026-05-06 10:35 | 52.53031 | 20.29202 | 11756 ft | 322 kts | 124° |
| 2026-05-06 10:35 | 52.51936 | 20.32314 | 11602 ft | 311 kts | 123° |
| 2026-05-06 10:35 | 52.51078 | 20.35572 | 11309 ft | 310 kts | 110° |
| 2026-05-06 10:35 | 52.50601 | 20.39011 | 10867 ft | 312 kts | 104° |
| 2026-05-06 10:36 | 52.50216 | 20.42499 | 10440 ft | 311 kts | 104° |
| 2026-05-06 10:36 | 52.49826 | 20.45962 | 10035 ft | 310 kts | 104° |
| 2026-05-06 10:36 | 52.49420 | 20.49421 | 9692 ft | 306 kts | 104° |
| 2026-05-06 10:36 | 52.48891 | 20.52685 | 9535 ft | 292 kts | 114° |
| 2026-05-06 10:37 | 52.48105 | 20.55758 | 9128 ft | 291 kts | 118° |
| 2026-05-06 10:37 | 52.47274 | 20.58721 | 8741 ft | 290 kts | 118° |
| 2026-05-06 10:37 | 52.46437 | 20.61727 | 8376 ft | 288 kts | 118° |
| 2026-05-06 10:37 | 52.45615 | 20.64718 | 8017 ft | 287 kts | 118° |
| 2026-05-06 10:38 | 52.44811 | 20.67648 | 7762 ft | 280 kts | 119° |
| 2026-05-06 10:38 | 52.44026 | 20.70482 | 7749 ft | 269 kts | 119° |
| 2026-05-06 10:38 | 52.43240 | 20.73288 | 7854 ft | 270 kts | 120° |
| 2026-05-06 10:38 | 52.42445 | 20.76120 | 7963 ft | 278 kts | 119° |
| 2026-05-06 10:39 | 52.41637 | 20.79011 | 7924 ft | 274 kts | 119° |
| 2026-05-06 10:39 | 52.40870 | 20.81770 | 7740 ft | 261 kts | 120° |
| 2026-05-06 10:39 | 52.39952 | 20.84206 | 7582 ft | 247 kts | 137° |
| 2026-05-06 10:39 | 52.38612 | 20.85757 | 7496 ft | 226 kts | 163° |
| 2026-05-06 10:40 | 52.37130 | 20.86244 | 7303 ft | 213 kts | 180° |
| 2026-05-06 10:40 | 52.35695 | 20.85987 | 7029 ft | 205 kts | 199° |
| 2026-05-06 10:40 | 52.34412 | 20.85055 | 6793 ft | 199 kts | 206° |
| 2026-05-06 10:40 | 52.33188 | 20.84127 | 6588 ft | 189 kts | 205° |
| 2026-05-06 10:41 | 52.32106 | 20.83016 | 6381 ft | 183 kts | 223° |
| 2026-05-06 10:41 | 52.31402 | 20.81326 | 6187 ft | 178 kts | 242° |
| 2026-05-06 10:41 | 52.31049 | 20.79407 | 5979 ft | 176 kts | 260° |
| 2026-05-06 10:41 | 52.31162 | 20.77469 | 5785 ft | 174 kts | 279° |
| 2026-05-06 10:42 | 52.31613 | 20.75638 | 5579 ft | 171 kts | 290° |
| 2026-05-06 10:42 | 52.32106 | 20.73915 | 5384 ft | 165 kts | 288° |
| 2026-05-06 10:42 | 52.32566 | 20.72237 | 5204 ft | 159 kts | 288° |
| 2026-05-06 10:42 | 52.33018 | 20.70619 | 5028 ft | 153 kts | 288° |
| 2026-05-06 10:43 | 52.33441 | 20.69086 | 4948 ft | 144 kts | 288° |
| 2026-05-06 10:43 | 52.33728 | 20.67544 | 4942 ft | 142 kts | 263° |
| 2026-05-06 10:43 | 52.33322 | 20.66149 | 4889 ft | 138 kts | 216° |
| 2026-05-06 10:44 | 52.31596 | 20.66690 | 4665 ft | 155 kts | 126° |
| 2026-05-06 10:44 | 52.31123 | 20.68267 | 4589 ft | 151 kts | 129° |
| 2026-05-06 10:44 | 52.30521 | 20.69665 | 4508 ft | 151 kts | 131° |
| 2026-05-06 10:44 | 52.29920 | 20.71096 | 4420 ft | 152 kts | 131° |
| 2026-05-06 10:45 | 52.29310 | 20.72483 | 4331 ft | 151 kts | 138° |
| 2026-05-06 10:45 | 52.28458 | 20.73472 | 4180 ft | 149 kts | 163° |
| 2026-05-06 10:45 | 52.27486 | 20.73803 | 4202 ft | 137 kts | 177° |
| 2026-05-06 10:45 | 52.26608 | 20.74004 | 4123 ft | 139 kts | 175° |
| 2026-05-06 10:46 | 52.25076 | 20.74387 | 3975 ft | 141 kts | 174° |
| 2026-05-06 10:46 | 52.24146 | 20.74647 | 4006 ft | 124 kts | 175° |
| 2026-05-06 10:46 | 52.23262 | 20.74883 | 3817 ft | 122 kts | 173° |
| 2026-05-06 10:46 | 52.22506 | 20.75602 | 3576 ft | 134 kts | 134° |
| 2026-05-06 10:47 | 52.21446 | 20.79489 | 3068 ft | 139 kts | 117° |
| 2026-05-06 10:47 | 52.19383 | 20.86931 | 1983 ft | 138 kts | 122° |
| 2026-05-06 10:47 | 52.17824 | 20.92359 | 871 ft | 142 kts | 119° |
| 2026-05-06 10:47 | 52.17410 | 20.93728 | 668 ft | 143 kts | 119° |
| 2026-05-06 10:48 | 52.17014 | 20.95161 | 393 ft | 147 kts | 116° |
| 2026-05-06 10:48 | 52.16632 | 20.96493 | 334 ft | 117 kts | 115° |
| 2026-05-06 10:48 | 52.16432 | 20.97210 | 337 ft | 43 kts | 115° |
| 2026-05-06 10:48 | 52.16385 | 20.97602 | 335 ft | 32 kts | 89° |
| 2026-05-06 10:49 | 52.16390 | 20.97732 | 335 ft | 3 kts | 85° |
| 2026-05-06 10:49 | 52.16395 | 20.97771 | 335 ft | 3 kts | 72° |
| 2026-05-06 10:49 | 52.16410 | 20.97800 | 335 ft | 5 kts | 35° |
| 2026-05-06 10:49 | 52.16463 | 20.97767 | 336 ft | 10 kts | 299° |
| 2026-05-06 10:50 | 52.16489 | 20.97670 | 337 ft | 9 kts | 293° |
| 2026-05-06 10:50 | 52.16520 | 20.97561 | 337 ft | 19 kts | 294° |
| 2026-05-06 10:50 | 52.16605 | 20.97340 | 337 ft | 24 kts | 324° |
| 2026-05-06 10:50 | 52.16744 | 20.97210 | 337 ft | 24 kts | 332° |
| 2026-05-06 10:51 | 52.16882 | 20.97087 | 335 ft | 24 kts | 334° |
| 2026-05-06 10:51 | 52.16942 | 20.97096 | 336 ft | 6 kts | 62° |
| 2026-05-06 10:51 | 52.16950 | 20.97135 | 338 ft | 2 kts | 77° |
| 2026-05-06 10:51 | 52.16956 | 20.97171 | 339 ft | 2 kts | 77° |
| 2026-05-06 10:52 | 52.16958 | 20.97185 | 339 ft | 0 kts | 77° |